Time;durP1;ratioP1;P1;durP2;ratioP2;P2;SDS_P1;SDS_P2;PMS_P1;PMS_P2;Temp;Humidity;BMP_temperature;BMP_pressure;BME280_temperature;BME280_humidity;BME280_pressure;Samples;Min_cycle;Max_cycle;Signal;HPM_P1;HPM_P2
2023/11/07 00:02:23;;;;;;;5.87;1.00;;;9.00;99.90;;;;;;5035444;28;20029;-51
2023/11/07 00:04:52;;;;;;;7.15;1.05;;;8.90;99.90;;;;;;5040645;28;20037;-52
2023/11/07 00:07:18;;;;;;;4.13;0.90;;;8.90;99.90;;;;;;5040349;28;20026;-51
2023/11/07 00:09:44;;;;;;;2.47;1.07;;;9.00;99.90;;;;;;5040286;28;20490;-54
2023/11/07 00:12:11;;;;;;;2.93;0.90;;;8.90;99.90;;;;;;5040062;28;20105;-54
2023/11/07 00:14:36;;;;;;;2.07;0.60;;;8.90;99.90;;;;;;5040141;28;20387;-51
2023/11/07 00:17:02;;;;;;;2.83;0.70;;;8.90;99.90;;;;;;5022061;28;20026;-54
2023/11/07 00:19:28;;;;;;;4.13;0.83;;;8.90;99.90;;;;;;5039603;28;20033;-51
2023/11/07 00:21:54;;;;;;;5.00;1.23;;;9.00;99.90;;;;;;5022090;28;20084;-54
2023/11/07 00:24:20;;;;;;;2.90;0.73;;;9.00;99.90;;;;;;5039375;28;20060;-53
2023/11/07 00:26:46;;;;;;;3.10;1.00;;;9.00;99.90;;;;;;5039277;28;20037;-55
2023/11/07 00:29:11;;;;;;;5.23;1.00;;;9.00;99.90;;;;;;5022013;28;20033;-54
2023/11/07 00:31:37;;;;;;;3.50;1.10;;;8.90;99.90;;;;;;5022137;28;20049;-51
2023/11/07 00:34:05;;;;;;;3.63;1.00;;;8.90;99.90;;;;;;5022792;28;20465;-53
2023/11/07 00:36:32;;;;;;;8.70;1.17;;;8.80;99.90;;;;;;5022116;28;20044;-54
2023/11/07 00:38:59;;;;;;;3.03;1.00;;;8.90;99.90;;;;;;5039072;28;20037;-52
2023/11/07 00:41:25;;;;;;;3.93;1.17;;;8.90;99.90;;;;;;5005798;28;20034;-54
2023/11/07 00:43:51;;;;;;;4.43;0.93;;;8.90;99.90;;;;;;5022138;28;20030;-50
2023/11/07 00:46:18;;;;;;;3.07;0.70;;;8.90;99.90;;;;;;5039683;28;20384;-52
2023/11/07 00:48:44;;;;;;;4.00;1.10;;;8.90;99.90;;;;;;5021693;28;20029;-54
2023/11/07 00:51:11;;;;;;;1.30;0.67;;;8.90;99.90;;;;;;5005325;28;20659;-50
2023/11/07 00:53:38;;;;;;;3.63;0.90;;;8.90;99.90;;;;;;5022128;28;20406;-52
2023/11/07 00:56:04;;;;;;;2.63;0.80;;;8.90;99.90;;;;;;5039984;28;20056;-51
2023/11/07 00:58:29;;;;;;;3.90;1.00;;;8.80;99.90;;;;;;5021523;28;20025;-52
2023/11/07 01:00:55;;;;;;;3.63;0.90;;;8.80;99.90;;;;;;5022289;28;20037;-51
2023/11/07 01:03:21;;;;;;;4.97;0.93;;;8.80;99.90;;;;;;5021858;28;20041;-51
2023/11/07 01:05:48;;;;;;;5.53;1.20;;;8.80;99.90;;;;;;5021769;28;20039;-50
2023/11/07 01:08:14;;;;;;;4.47;1.00;;;8.70;99.90;;;;;;5021197;28;20113;-50
2023/11/07 01:10:39;;;;;;;2.47;1.00;;;8.70;99.90;;;;;;5039905;28;20553;-50
2023/11/07 01:13:07;;;;;;;3.53;1.10;;;8.60;99.90;;;;;;5022244;28;20488;-51
2023/11/07 01:15:33;;;;;;;4.67;1.27;;;8.60;99.90;;;;;;5039070;28;20033;-54
2023/11/07 01:17:58;;;;;;;5.47;1.27;;;8.50;99.90;;;;;;5021146;28;20083;-50
2023/11/07 01:20:24;;;;;;;2.83;1.20;;;8.50;99.90;;;;;;5021826;28;20064;-52
2023/11/07 01:22:50;;;;;;;3.33;1.13;;;8.50;99.90;;;;;;5022126;28;20044;-51
2023/11/07 01:25:16;;;;;;;3.63;1.33;;;8.40;99.90;;;;;;5021809;28;20041;-50
2023/11/07 01:27:42;;;;;;;5.00;0.93;;;8.30;99.90;;;;;;5021995;28;20033;-50
2023/11/07 01:30:09;;;;;;;3.67;0.93;;;8.20;99.90;;;;;;5021898;28;20064;-53
2023/11/07 01:32:36;;;;;;;5.37;1.40;;;8.20;99.90;;;;;;5022070;28;20044;-51
2023/11/07 01:35:03;;;;;;;3.57;0.83;;;8.10;99.90;;;;;;5039736;28;20042;-52
2023/11/07 01:37:29;;;;;;;3.67;1.10;;;8.00;99.90;;;;;;5005593;28;20136;-50
2023/11/07 01:39:55;;;;;;;4.00;1.10;;;8.10;99.90;;;;;;5039591;28;20033;-52
2023/11/07 01:42:21;;;;;;;2.10;1.00;;;8.10;99.90;;;;;;5022202;28;20463;-51
2023/11/07 01:44:51;;;;;;;3.53;1.00;;;8.10;99.90;;;;;;5039723;28;20026;-50
2023/11/07 01:47:19;;;;;;;4.23;0.97;;;8.10;99.90;;;;;;5021117;28;20535;-51
2023/11/07 01:49:49;;;;;;;2.63;1.20;;;8.00;99.90;;;;;;5020048;28;20026;-53
2023/11/07 01:52:17;;;;;;;5.40;0.90;;;8.10;99.90;;;;;;5037756;28;20029;-54
2023/11/07 01:54:44;;;;;;;4.68;1.10;;;8.10;99.90;;;;;;5020029;28;20025;-53
2023/11/07 01:57:12;;;;;;;5.33;1.10;;;8.10;99.90;;;;;;5019475;28;20037;-51
2023/11/07 01:59:38;;;;;;;7.77;1.30;;;8.10;99.90;;;;;;5019739;28;20025;-52
2023/11/07 02:02:09;;;;;;;6.33;1.40;;;8.00;99.90;;;;;;5020377;28;20102;-52
2023/11/07 02:04:34;;;;;;;2.97;0.80;;;8.00;99.90;;;;;;5037943;28;20276;-52
2023/11/07 02:07:00;;;;;;;3.60;1.13;;;8.00;99.90;;;;;;5037346;28;20033;-55
2023/11/07 02:09:26;;;;;;;1.37;0.80;;;8.10;99.90;;;;;;5019541;28;20029;-55
2023/11/07 02:11:51;;;;;;;6.67;1.50;;;8.20;99.90;;;;;;5037756;28;20032;-52
2023/11/07 02:14:35;;;;;;;3.77;0.90;;;8.20;99.90;;;;;;5037017;28;20478;-51
2023/11/07 02:17:01;;;;;;;3.63;1.17;;;8.20;99.90;;;;;;5019943;28;20025;-55
2023/11/07 02:19:27;;;;;;;8.30;1.27;;;8.20;99.90;;;;;;5018730;28;20037;-51
2023/11/07 02:21:57;;;;;;;7.37;1.27;;;8.20;99.90;;;;;;5037758;28;20116;-55
2023/11/07 02:24:23;;;;;;;5.27;1.10;;;8.20;99.90;;;;;;5037427;28;20033;-53
2023/11/07 02:26:56;;;;;;;4.23;0.90;;;8.30;99.90;;;;;;5036008;28;20383;-52
2023/11/07 02:29:22;;;;;;;2.90;1.13;;;8.30;99.90;;;;;;5019598;28;20112;-53
2023/11/07 02:31:48;;;;;;;5.30;0.93;;;8.30;99.90;;;;;;5019328;28;20041;-56
2023/11/07 02:34:14;;;;;;;4.00;1.27;;;8.40;99.90;;;;;;5019594;28;20030;-52
2023/11/07 02:36:40;;;;;;;3.53;1.00;;;8.40;99.90;;;;;;5019476;28;20113;-53
2023/11/07 02:39:07;;;;;;;4.83;0.77;;;8.40;99.90;;;;;;5019025;28;20167;-51
2023/11/07 02:41:33;;;;;;;2.23;0.93;;;8.40;99.90;;;;;;5037593;28;20033;-53
2023/11/07 02:43:59;;;;;;;4.70;0.80;;;8.40;99.90;;;;;;5036809;28;20498;-53
2023/11/07 02:46:26;;;;;;;3.93;0.83;;;8.40;99.90;;;;;;5019037;28;20079;-51
2023/11/07 02:48:51;;;;;;;4.93;1.00;;;8.40;99.90;;;;;;5037109;28;20041;-56
2023/11/07 02:51:18;;;;;;;4.20;0.87;;;8.40;99.90;;;;;;5019033;28;20026;-54
2023/11/07 02:53:47;;;;;;;2.10;0.70;;;8.50;99.90;;;;;;5037578;28;20124;-53
2023/11/07 02:56:13;;;;;;;2.45;1.05;;;8.50;99.90;;;;;;5018607;28;20033;-55
2023/11/07 02:58:39;;;;;;;3.17;0.77;;;8.60;99.90;;;;;;5035769;28;20034;-52
2023/11/07 03:01:04;;;;;;;3.20;1.00;;;8.70;99.90;;;;;;5018737;28;20080;-55
2023/11/07 03:03:32;;;;;;;4.03;1.00;;;8.80;99.90;;;;;;5018446;28;20074;-54
2023/11/07 03:05:57;;;;;;;3.57;0.90;;;8.80;99.90;;;;;;5035791;28;20029;-55
2023/11/07 03:08:23;;;;;;;5.67;1.20;;;8.90;99.90;;;;;;5018179;28;20124;-54
2023/11/07 03:10:48;;;;;;;2.77;0.97;;;8.90;99.90;;;;;;5036045;28;20406;-51
2023/11/07 03:13:14;;;;;;;3.20;0.80;;;8.90;99.90;;;;;;5018363;28;20041;-56
2023/11/07 03:15:40;;;;;;;6.30;0.97;;;8.90;99.90;;;;;;5035903;28;20029;-55
2023/11/07 03:18:06;;;;;;;2.90;1.00;;;9.00;99.90;;;;;;5017683;28;20040;-56
2023/11/07 03:20:32;;;;;;;4.60;1.30;;;9.00;99.90;;;;;;5035240;28;20547;-52
2023/11/07 03:22:58;;;;;;;3.80;0.70;;;9.00;99.90;;;;;;5035961;28;20490;-51
2023/11/07 03:25:25;;;;;;;2.63;0.90;;;9.00;99.90;;;;;;5035373;28;20131;-54
2023/11/07 03:27:51;;;;;;;3.07;0.73;;;9.10;99.90;;;;;;5035106;28;20040;-54
2023/11/07 03:30:17;;;;;;;2.63;0.90;;;9.10;99.90;;;;;;5034890;28;20026;-53
2023/11/07 03:32:43;;;;;;;2.83;1.00;;;9.00;99.90;;;;;;5017649;28;20033;-54
2023/11/07 03:35:09;;;;;;;2.30;0.80;;;9.10;99.90;;;;;;5017617;28;20033;-55
2023/11/07 03:37:35;;;;;;;6.43;1.03;;;9.20;99.90;;;;;;5017174;28;20045;-55
2023/11/07 03:40:03;;;;;;;3.47;0.60;;;9.10;99.90;;;;;;5034663;28;20233;-55
2023/11/07 03:42:28;;;;;;;2.30;0.67;;;9.10;99.90;;;;;;5017031;28;20017;-55
2023/11/07 03:44:54;;;;;;;2.17;0.60;;;9.10;99.90;;;;;;5017500;28;20405;-55
2023/11/07 03:47:20;;;;;;;2.03;0.90;;;9.10;99.90;;;;;;5034373;28;20116;-52
2023/11/07 03:49:45;;;;;;;2.97;0.70;;;9.10;99.90;;;;;;5034848;28;20029;-55
2023/11/07 03:52:11;;;;;;;4.87;1.23;;;9.10;99.90;;;;;;5035088;28;20498;-53
2023/11/07 03:54:36;;;;;;;2.53;0.70;;;9.00;99.90;;;;;;5034487;28;20026;-55
2023/11/07 03:57:03;;;;;;;3.27;1.33;;;9.00;99.90;;;;;;5034830;28;20048;-53
2023/11/07 03:59:28;;;;;;;1.83;0.77;;;9.00;99.90;;;;;;5034463;28;20049;-55
2023/11/07 04:01:55;;;;;;;2.90;0.90;;;9.00;99.90;;;;;;5016247;28;20025;-50
2023/11/07 04:04:21;;;;;;;2.07;0.80;;;9.00;99.90;;;;;;5036046;28;20049;-53
2023/11/07 04:06:48;;;;;;;2.43;0.60;;;9.10;99.90;;;;;;5035842;28;20421;-53
2023/11/07 04:09:14;;;;;;;2.33;1.00;;;9.10;99.90;;;;;;5017949;28;20037;-53
2023/11/07 04:11:40;;;;;;;2.13;0.70;;;9.10;99.90;;;;;;5017926;28;20487;-50
2023/11/07 04:14:05;;;;;;;2.37;0.57;;;9.10;99.90;;;;;;5035583;28;20116;-50
2023/11/07 04:16:32;;;;;;;3.60;0.60;;;9.20;99.90;;;;;;5035063;28;20033;-54
2023/11/07 04:18:59;;;;;;;4.77;1.10;;;9.20;99.90;;;;;;5035612;28;20375;-54
2023/11/07 04:21:25;;;;;;;0.77;0.50;;;9.30;99.90;;;;;;5017783;28;20068;-52
2023/11/07 04:23:50;;;;;;;2.23;0.47;;;9.30;99.90;;;;;;5036319;28;20059;-52
2023/11/07 04:26:17;;;;;;;2.50;0.60;;;9.30;99.90;;;;;;5035637;28;20112;-52
2023/11/07 04:28:43;;;;;;;2.83;0.60;;;9.30;99.90;;;;;;5035705;28;20445;-51
2023/11/07 04:31:09;;;;;;;3.10;0.63;;;9.30;99.90;;;;;;5035292;28;20049;-54
2023/11/07 04:33:35;;;;;;;2.53;0.83;;;9.30;99.90;;;;;;5035374;28;20100;-55
2023/11/07 04:36:01;;;;;;;1.13;0.47;;;9.40;99.90;;;;;;5017147;28;20033;-54
2023/11/07 04:38:30;;;;;;;3.03;0.80;;;9.40;99.90;;;;;;5034791;28;20042;-55
2023/11/07 04:40:56;;;;;;;0.53;0.40;;;9.30;99.90;;;;;;5034325;28;20064;-52
2023/11/07 04:43:22;;;;;;;1.70;0.70;;;9.30;99.90;;;;;;5034842;28;20116;-53
2023/11/07 04:45:48;;;;;;;3.63;0.60;;;9.30;99.90;;;;;;5034672;28;20076;-55
2023/11/07 04:48:14;;;;;;;3.13;0.80;;;9.30;99.90;;;;;;5033988;28;20033;-52
2023/11/07 04:50:40;;;;;;;2.50;0.60;;;9.30;99.90;;;;;;5038145;28;20066;-53
2023/11/07 04:53:06;;;;;;;1.97;0.70;;;9.30;99.90;;;;;;5038710;28;20045;-55
2023/11/07 04:55:32;;;;;;;0.70;0.63;;;9.30;99.90;;;;;;5038570;28;20140;-55
2023/11/07 04:57:58;;;;;;;10.33;2.93;;;9.30;99.90;;;;;;5020189;28;20064;-53
2023/11/07 05:00:24;;;;;;;7.37;2.30;;;9.30;99.90;;;;;;5038660;28;20033;-53
2023/11/07 05:02:50;;;;;;;1.13;0.67;;;9.30;99.90;;;;;;5038511;28;20036;-54
2023/11/07 05:05:16;;;;;;;4.00;1.13;;;9.30;99.90;;;;;;5038825;28;20072;-55
2023/11/07 05:07:41;;;;;;;1.90;0.67;;;9.30;99.90;;;;;;5020215;28;20037;-55
2023/11/07 05:10:10;;;;;;;1.33;0.60;;;9.30;99.90;;;;;;5019917;28;20038;-51
2023/11/07 05:12:37;;;;;;;2.85;1.05;;;9.30;99.90;;;;;;5037548;28;20040;-54
2023/11/07 05:15:04;;;;;;;1.17;0.50;;;9.30;99.90;;;;;;5037625;28;20049;-54
2023/11/07 05:17:29;;;;;;;1.23;0.50;;;9.30;99.90;;;;;;5036952;28;20021;-55
2023/11/07 05:19:55;;;;;;;1.93;0.80;;;9.30;99.90;;;;;;5036840;28;20025;-55
2023/11/07 05:22:21;;;;;;;2.63;1.10;;;9.40;99.90;;;;;;5037578;28;20171;-55
2023/11/07 05:24:47;;;;;;;1.40;0.53;;;9.40;99.90;;;;;;5037614;28;20143;-52
2023/11/07 05:27:13;;;;;;;2.40;0.50;;;9.40;99.90;;;;;;5037581;28;20030;-54
2023/11/07 05:29:40;;;;;;;4.37;0.90;;;9.50;99.90;;;;;;5037979;28;20159;-54
2023/11/07 05:32:05;;;;;;;4.00;0.97;;;9.50;99.90;;;;;;5038131;28;20117;-54
2023/11/07 05:34:31;;;;;;;1.07;0.60;;;9.50;99.90;;;;;;5037041;28;20049;-56
2023/11/07 05:36:57;;;;;;;2.10;0.73;;;9.50;99.90;;;;;;5037202;28;20029;-52
2023/11/07 05:39:27;;;;;;;2.00;0.63;;;9.50;99.90;;;;;;5037672;28;20026;-53
2023/11/07 05:41:54;;;;;;;2.40;0.97;;;9.40;99.90;;;;;;5038413;28;20136;-52
2023/11/07 05:44:20;;;;;;;6.13;0.73;;;9.40;99.90;;;;;;5037483;28;20030;-55
2023/11/07 05:46:45;;;;;;;2.03;0.90;;;9.40;99.90;;;;;;5037473;28;20094;-55
2023/11/07 05:49:11;;;;;;;3.70;0.63;;;9.40;99.90;;;;;;5019376;28;20525;-54
2023/11/07 05:51:38;;;;;;;3.33;0.70;;;9.40;99.90;;;;;;5037974;28;20100;-53
2023/11/07 05:54:04;;;;;;;2.67;1.00;;;9.30;99.90;;;;;;5037042;28;20037;-55
2023/11/07 05:56:29;;;;;;;2.83;0.90;;;9.40;99.90;;;;;;5037637;28;20029;-51
2023/11/07 05:58:55;;;;;;;3.87;0.80;;;9.40;99.90;;;;;;5019830;28;20505;-55
2023/11/07 06:01:20;;;;;;;2.23;0.87;;;9.40;99.90;;;;;;5037108;28;20040;-50
2023/11/07 06:03:48;;;;;;;2.97;0.93;;;9.40;99.90;;;;;;5038612;28;20033;-50
2023/11/07 06:06:14;;;;;;;2.10;0.50;;;9.40;99.90;;;;;;5038974;28;20037;-50
2023/11/07 06:08:39;;;;;;;7.07;0.80;;;9.50;99.90;;;;;;5037981;28;20048;-54
2023/11/07 06:11:05;;;;;;;5.10;0.87;;;9.50;99.90;;;;;;5020315;28;20398;-51
2023/11/07 06:13:30;;;;;;;6.13;1.90;;;9.50;99.90;;;;;;5038717;28;20394;-53
2023/11/07 06:15:56;;;;;;;3.73;1.23;;;9.60;99.90;;;;;;5038780;28;20033;-52
2023/11/07 06:18:22;;;;;;;1.77;1.10;;;9.50;99.90;;;;;;5039175;28;20047;-51
2023/11/07 06:20:47;;;;;;;2.30;0.90;;;9.40;99.90;;;;;;5038540;28;20026;-50
2023/11/07 06:23:13;;;;;;;3.37;1.10;;;9.50;99.90;;;;;;5038363;28;20083;-53
2023/11/07 06:25:39;;;;;;;2.60;1.00;;;9.50;99.90;;;;;;5039308;28;20026;-52
2023/11/07 06:28:05;;;;;;;1.87;0.60;;;9.50;99.90;;;;;;5037925;28;20509;-51
2023/11/07 06:30:30;;;;;;;2.00;0.80;;;9.50;99.90;;;;;;5038003;28;20042;-55
2023/11/07 06:32:57;;;;;;;3.50;0.80;;;9.50;99.90;;;;;;5038481;28;20535;-54
2023/11/07 06:35:23;;;;;;;2.23;0.87;;;9.50;99.90;;;;;;5038027;28;20049;-53
2023/11/07 06:37:48;;;;;;;1.20;0.77;;;9.50;99.90;;;;;;5038024;28;20068;-52
2023/11/07 06:40:16;;;;;;;2.93;1.10;;;9.50;99.90;;;;;;5038389;28;20026;-53
2023/11/07 06:42:46;;;;;;;3.73;1.07;;;9.40;99.90;;;;;;5037749;28;20042;-52
2023/11/07 06:45:12;;;;;;;;;;;9.40;99.90;;;;;;5038071;28;20482;-51
2023/11/07 06:47:40;;;;;;;3.13;0.73;;;9.40;99.90;;;;;;5019354;28;19916;-50
2023/11/07 06:50:08;;;;;;;3.97;0.80;;;9.40;99.90;;;;;;5036482;28;20121;-52
2023/11/07 06:52:35;;;;;;;1.00;0.60;;;9.40;99.90;;;;;;5018884;28;20033;-55
2023/11/07 06:55:02;;;;;;;2.77;0.70;;;9.40;99.90;;;;;;5036582;28;20033;-51
2023/11/07 06:57:27;;;;;;;1.37;0.60;;;9.30;99.90;;;;;;5037173;28;20018;-52
2023/11/07 06:59:53;;;;;;;2.40;0.73;;;9.30;99.90;;;;;;5036988;28;20032;-53
2023/11/07 07:02:18;;;;;;;2.03;0.80;;;9.30;99.90;;;;;;5018603;28;20045;-53
2023/11/07 07:04:44;;;;;;;4.23;0.87;;;9.20;99.90;;;;;;5019315;28;20030;-53
2023/11/07 07:07:12;;;;;;;1.43;0.83;;;9.20;99.90;;;;;;5036241;28;20383;-53
2023/11/07 07:09:39;;;;;;;2.20;0.90;;;9.20;99.90;;;;;;5019214;28;20053;-54
2023/11/07 07:12:05;;;;;;;4.47;1.43;;;9.30;99.90;;;;;;5037105;28;20445;-54
2023/11/07 07:14:31;;;;;;;2.27;1.27;;;9.30;99.90;;;;;;5037352;28;20049;-51
2023/11/07 07:16:56;;;;;;;4.53;0.97;;;9.30;99.90;;;;;;5018780;28;20025;-52
2023/11/07 07:19:22;;;;;;;2.20;0.70;;;9.30;99.90;;;;;;5035889;28;20025;-52
2023/11/07 07:21:48;;;;;;;3.63;1.03;;;9.30;99.90;;;;;;5036626;28;20115;-51
2023/11/07 07:24:21;;;;;;;3.00;1.00;;;9.30;99.90;;;;;;5018593;28;20033;-52
2023/11/07 07:26:47;;;;;;;3.10;0.80;;;9.30;99.90;;;;;;5036924;28;20085;-50
2023/11/07 07:29:13;;;;;;;3.13;1.13;;;9.30;99.90;;;;;;5036792;28;20029;-53
2023/11/07 07:31:43;;;;;;;4.47;1.20;;;9.40;99.90;;;;;;5037819;28;20034;-51
2023/11/07 07:34:09;;;;;;;3.05;1.05;;;9.40;99.90;;;;;;5020268;28;20466;-55
2023/11/07 07:36:43;;;;;;;4.33;0.87;;;9.50;99.90;;;;;;5036458;28;20036;-54
2023/11/07 07:39:32;;;;;;;20.13;9.03;;;9.50;99.90;;;;;;5036722;28;20080;-52
2023/11/07 07:42:09;;;;;;;5.22;2.47;;;9.60;99.90;;;;;;5037799;28;20041;-52
2023/11/07 07:44:38;;;;;;;3.27;1.53;;;9.70;99.90;;;;;;5019458;28;20044;-51
2023/11/07 07:47:05;;;;;;;1.93;0.67;;;9.70;99.90;;;;;;5019473;28;20052;-51
2023/11/07 07:49:30;;;;;;;5.60;1.20;;;9.70;99.90;;;;;;5037009;28;20495;-50
2023/11/07 07:51:59;;;;;;;2.07;0.73;;;9.70;99.90;;;;;;5037289;28;20029;-51
2023/11/07 07:54:25;;;;;;;1.93;0.80;;;9.70;99.90;;;;;;5037551;28;20030;-51
2023/11/07 07:56:53;;;;;;;2.50;0.90;;;9.70;99.90;;;;;;5036848;28;20025;-50
2023/11/07 07:59:24;;;;;;;2.40;0.70;;;9.70;99.90;;;;;;5037131;28;20030;-51
2023/11/07 08:01:57;;;;;;;2.40;0.80;;;9.70;99.90;;;;;;5037832;28;20064;-53
2023/11/07 08:04:24;;;;;;;4.17;0.77;;;9.80;99.90;;;;;;5036756;28;20041;-50
2023/11/07 08:06:49;;;;;;;3.80;0.70;;;9.80;99.90;;;;;;5019058;28;20040;-51
2023/11/07 08:09:18;;;;;;;1.20;0.43;;;9.80;99.90;;;;;;5019678;28;20030;-51
2023/11/07 08:12:08;;;;;;;2.07;0.60;;;9.90;99.90;;;;;;5019726;28;20442;-50
2023/11/07 08:14:35;;;;;;;1.80;0.77;;;9.90;99.90;;;;;;5036984;28;20037;-50
2023/11/07 08:17:01;;;;;;;1.17;0.50;;;9.90;99.90;;;;;;5035761;28;20097;-51
2023/11/07 08:19:27;;;;;;;1.67;0.73;;;10.00;99.90;;;;;;5035576;28;20126;-54
2023/11/07 08:21:53;;;;;;;2.53;0.50;;;10.10;99.90;;;;;;5035303;28;20037;-52
2023/11/07 08:24:19;;;;;;;1.90;0.70;;;10.10;99.90;;;;;;5037134;28;20029;-54
2023/11/07 08:26:44;;;;;;;1.63;0.63;;;10.20;99.90;;;;;;5021459;28;20029;-49
2023/11/07 08:29:11;;;;;;;2.97;0.83;;;10.20;99.90;;;;;;5039126;28;20030;-52
2023/11/07 08:31:37;;;;;;;1.00;0.60;;;10.20;99.90;;;;;;5039351;28;20025;-52
2023/11/07 08:34:10;;;;;;;2.00;0.70;;;10.30;99.90;;;;;;5039260;28;20025;-49
2023/11/07 08:36:39;;;;;;;1.83;0.60;;;10.30;99.90;;;;;;5038312;28;20030;-54
2023/11/07 08:39:16;;;;;;;1.20;0.60;;;10.30;99.90;;;;;;5038092;28;20029;-52
2023/11/07 08:41:43;;;;;;;2.10;0.60;;;10.30;99.90;;;;;;5037848;28;20077;-54
2023/11/07 08:44:09;;;;;;;2.30;0.70;;;10.20;99.90;;;;;;5037700;28;20097;-54
2023/11/07 08:46:34;;;;;;;1.63;0.50;;;10.20;99.90;;;;;;5039584;28;20072;-53
2023/11/07 08:49:01;;;;;;;1.67;0.70;;;10.20;99.90;;;;;;5039275;28;20041;-50
2023/11/07 08:51:28;;;;;;;2.23;0.70;;;10.20;99.90;;;;;;5040286;28;20061;-51
2023/11/07 08:53:55;;;;;;;0.87;0.50;;;10.20;99.90;;;;;;5022244;28;20041;-53
2023/11/07 08:56:24;;;;;;;1.90;0.80;;;10.20;99.90;;;;;;5040358;28;20093;-51
2023/11/07 08:58:50;;;;;;;5.28;0.60;;;10.20;99.90;;;;;;5039623;28;20568;-53
2023/11/07 09:01:16;;;;;;;3.33;0.70;;;10.30;99.90;;;;;;5040141;28;20033;-53
2023/11/07 09:03:44;;;;;;;3.03;0.83;;;10.30;99.90;;;;;;5040046;28;20114;-50
2023/11/07 09:06:09;;;;;;;1.03;0.70;;;10.20;99.90;;;;;;5039635;28;20029;-52
2023/11/07 09:08:35;;;;;;;2.70;0.93;;;10.20;99.90;;;;;;5039806;28;20112;-52
2023/11/07 09:11:01;;;;;;;1.17;0.60;;;10.10;99.90;;;;;;5021908;28;20033;-55
2023/11/07 09:13:27;;;;;;;17.10;6.93;;;10.20;99.90;;;;;;5039187;28;20026;-53
2023/11/07 09:15:54;;;;;;;2.63;1.10;;;10.20;99.90;;;;;;5039056;28;20030;-50
2023/11/07 09:18:19;;;;;;;2.20;1.00;;;10.30;99.90;;;;;;5039197;28;20053;-52
2023/11/07 09:20:45;;;;;;;1.60;0.70;;;10.30;99.90;;;;;;5039758;28;20042;-53
2023/11/07 09:23:11;;;;;;;3.70;0.77;;;10.40;99.90;;;;;;5022038;28;20033;-53
2023/11/07 09:25:37;;;;;;;1.70;1.00;;;10.40;99.90;;;;;;5022171;28;20068;-51
2023/11/07 09:28:03;;;;;;;2.77;0.90;;;10.50;99.90;;;;;;5038717;28;20079;-53
2023/11/07 09:30:29;;;;;;;3.23;1.00;;;10.50;99.90;;;;;;5039897;28;20075;-51
2023/11/07 09:32:56;;;;;;;3.57;1.40;;;10.50;99.90;;;;;;5039524;28;20470;-54
2023/11/07 09:35:23;;;;;;;6.03;1.43;;;10.60;99.90;;;;;;5039470;28;20063;-55
2023/11/07 09:37:49;;;;;;;4.90;1.47;;;10.60;99.90;;;;;;5039020;28;20029;-53
2023/11/07 09:40:19;;;;;;;3.20;1.50;;;10.70;99.90;;;;;;5021604;28;20049;-53
2023/11/07 09:42:48;;;;;;;7.97;1.97;;;10.80;99.90;;;;;;5039690;28;20088;-53
2023/11/07 09:45:15;;;;;;;3.53;1.27;;;10.90;99.90;;;;;;5020513;28;20248;-52
2023/11/07 09:47:48;;;;;;;7.10;1.70;;;11.00;99.90;;;;;;5037604;28;20068;-54
2023/11/07 09:50:22;;;;;;;5.57;1.53;;;11.00;99.90;;;;;;5037420;28;20112;-52
2023/11/07 09:52:49;;;;;;;4.80;1.43;;;11.00;99.90;;;;;;5037426;28;20029;-55
2023/11/07 09:55:15;;;;;;;5.10;1.50;;;11.00;99.90;;;;;;5037820;28;20030;-54
2023/11/07 09:57:56;;;;;;;3.53;1.40;;;11.10;99.90;;;;;;5037045;28;20068;-53
2023/11/07 10:00:23;;;;;;;3.50;1.63;;;11.10;99.90;;;;;;5019031;28;20046;-55
2023/11/07 10:02:50;;;;;;;8.77;1.60;;;11.10;99.90;;;;;;5037247;28;20026;-52
2023/11/07 10:05:19;;;;;;;2.80;1.30;;;11.10;99.90;;;;;;5037409;28;20029;-54
2023/11/07 10:07:49;;;;;;;4.82;1.20;;;11.10;99.90;;;;;;5018990;28;20494;-55
2023/11/07 10:10:16;;;;;;;3.87;1.50;;;11.20;99.90;;;;;;5019401;28;20124;-54
2023/11/07 10:12:43;;;;;;;4.03;1.73;;;11.10;99.90;;;;;;5037662;28;20048;-54
2023/11/07 10:15:19;;;;;;;3.50;1.20;;;11.20;99.90;;;;;;5003150;28;20026;-52
2023/11/07 10:18:04;;;;;;;21.70;9.03;;;11.30;99.90;;;;;;5036789;28;20048;-54
2023/11/07 10:20:31;;;;;;;7.23;4.00;;;11.50;99.90;;;;;;5036633;28;20112;-53
2023/11/07 10:23:00;;;;;;;4.03;1.53;;;11.50;99.90;;;;;;5037477;28;20033;-53
2023/11/07 10:25:26;;;;;;;;;;;11.60;99.90;;;;;;5037768;28;20437;-55
2023/11/07 10:28:10;;;;;;;3.43;1.50;;;11.60;99.90;;;;;;5036839;28;19913;-49
2023/11/07 10:30:39;;;;;;;4.57;2.00;;;11.60;99.90;;;;;;5036569;28;20073;-52
2023/11/07 10:33:05;;;;;;;;;;;11.60;99.90;;;;;;5036977;28;20033;-53
2023/11/07 10:35:32;;;;;;;2.10;1.10;;;11.60;99.90;;;;;;5036499;28;20007;-55
2023/11/07 10:37:58;;;;;;;1.63;0.80;;;11.50;99.90;;;;;;5035948;28;20545;-53
2023/11/07 10:40:23;;;;;;;2.17;0.93;;;11.50;99.90;;;;;;5036253;28;20067;-50
2023/11/07 10:42:49;;;;;;;1.77;0.80;;;11.50;99.90;;;;;;5036116;28;20066;-54
2023/11/07 10:45:17;;;;;;;3.30;0.90;;;11.60;99.90;;;;;;5036108;28;20036;-54
2023/11/07 10:47:43;;;;;;;3.60;0.90;;;11.70;99.90;;;;;;5035505;28;20390;-55
2023/11/07 10:50:14;;;;;;;1.80;0.87;;;12.00;99.90;;;;;;5035361;28;20423;-54
2023/11/07 10:52:40;;;;;;;2.13;0.77;;;12.40;99.90;;;;;;5035866;28;20029;-52
2023/11/07 10:55:06;;;;;;;1.15;0.80;;;12.50;99.90;;;;;;5035684;28;20124;-53
2023/11/07 10:57:33;;;;;;;4.90;0.90;;;12.70;99.90;;;;;;5035535;28;20043;-54
2023/11/07 11:00:13;;;;;;;1.50;0.68;;;12.80;99.90;;;;;;5035675;28;20379;-55
2023/11/07 11:02:44;;;;;;;2.95;0.88;;;12.80;99.90;;;;;;5036064;28;20052;-55
2023/11/07 11:05:13;;;;;;;2.03;0.73;;;12.80;99.90;;;;;;5035355;28;20109;-52
2023/11/07 11:07:51;;;;;;;2.08;0.80;;;12.70;99.90;;;;;;5035827;28;20053;-54
2023/11/07 11:10:20;;;;;;;2.05;0.70;;;12.60;99.90;;;;;;5034460;28;20041;-55
2023/11/07 11:12:49;;;;;;;2.47;1.25;;;12.50;99.90;;;;;;5034586;28;20912;-52
2023/11/07 11:15:17;;;;;;;3.92;0.57;;;12.30;99.90;;;;;;5034035;28;20029;-55
2023/11/07 11:17:54;;;;;;;3.83;1.25;;;12.40;99.90;;;;;;5034751;28;20029;-52
2023/11/07 11:20:43;;;;;;;3.28;0.60;;;12.40;99.90;;;;;;5035732;28;20048;-53
2023/11/07 11:23:36;;;;;;;1.85;0.70;;;12.40;99.90;;;;;;5035376;28;20030;-53
2023/11/07 11:26:43;;;;;;;2.45;1.13;;;12.30;99.90;;;;;;5027032;28;20091;-52
2023/11/07 11:29:22;;;;;;;3.73;1.10;;;12.20;99.90;;;;;;5017361;28;20398;-51
2023/11/07 11:31:47;;;;;;;4.18;1.33;;;12.30;99.90;;;;;;5034647;28;20136;-54
2023/11/07 11:34:29;;;;;;;4.28;1.30;;;12.40;99.90;;;;;;5035305;28;20025;-53
2023/11/07 11:36:56;;;;;;;2.97;1.10;;;12.40;99.90;;;;;;5017400;28;20044;-53
2023/11/07 11:39:35;;;;;;;3.67;1.63;;;12.30;99.90;;;;;;5035188;28;20043;-51
2023/11/07 11:42:03;;;;;;;;;;;12.30;99.90;;;;;;5035821;28;20374;-54
2023/11/07 11:44:29;;;;;;;2.10;0.80;;;12.30;99.90;;;;;;5034629;28;20000;-53
2023/11/07 11:46:55;;;;;;;1.77;1.17;;;12.20;99.90;;;;;;5035054;28;20029;-51
2023/11/07 11:49:23;;;;;;;1.87;0.67;;;12.10;99.90;;;;;;5034258;28;20037;-53
2023/11/07 11:51:51;;;;;;;1.93;0.73;;;12.10;99.90;;;;;;5034767;28;20033;-52
2023/11/07 11:54:22;;;;;;;2.37;0.63;;;12.10;99.90;;;;;;5034466;28;20108;-54
2023/11/07 11:56:48;;;;;;;0.77;0.60;;;12.00;99.90;;;;;;5034928;28;20088;-54
2023/11/07 11:59:16;;;;;;;1.80;0.67;;;12.00;99.90;;;;;;5034331;28;20494;-54
2023/11/07 12:02:04;;;;;;;2.33;0.90;;;12.00;99.90;;;;;;5016607;28;20041;-54
2023/11/07 12:04:40;;;;;;;1.73;0.80;;;12.00;99.90;;;;;;5034522;28;20474;-53
2023/11/07 12:07:14;;;;;;;2.17;0.80;;;12.00;99.90;;;;;;5034439;28;20165;-55
2023/11/07 12:09:45;;;;;;;1.63;0.80;;;11.90;99.90;;;;;;4996581;28;1093260;-54
2023/11/07 12:12:14;;;;;;;3.27;0.70;;;11.90;99.90;;;;;;5035623;28;20029;-51
2023/11/07 12:15:03;;;;;;;19.30;8.83;;;11.90;99.90;;;;;;5035077;28;20041;-53
2023/11/07 12:17:42;;;;;;;4.28;1.25;;;12.00;99.90;;;;;;5017332;28;20044;-52
2023/11/07 12:20:11;;;;;;;2.35;0.82;;;12.00;99.90;;;;;;5035247;28;20160;-52
2023/11/07 12:22:57;;;;;;;2.35;0.70;;;12.00;99.90;;;;;;5035058;28;20518;-50
2023/11/07 12:25:22;;;;;;;2.27;0.83;;;12.00;99.90;;;;;;5035273;28;20042;-51
2023/11/07 12:28:05;;;;;;;4.43;0.60;;;12.00;99.90;;;;;;5034599;28;20045;-53
2023/11/07 12:30:35;;;;;;;2.60;0.60;;;12.00;99.90;;;;;;5035032;28;20036;-54
2023/11/07 12:33:08;;;;;;;0.93;0.50;;;12.00;99.90;;;;;;5035106;28;20025;-55
2023/11/07 12:35:35;;;;;;;4.80;0.93;;;12.00;99.90;;;;;;5034631;28;20036;-54
2023/11/07 12:38:09;;;;;;;1.40;0.67;;;12.10;99.90;;;;;;5016428;28;20052;-54
2023/11/07 12:40:36;;;;;;;2.00;0.63;;;12.00;99.90;;;;;;5035000;28;20447;-55
2023/11/07 12:43:07;;;;;;;2.80;0.83;;;12.00;99.90;;;;;;5035094;28;20065;-54
2023/11/07 12:45:36;;;;;;;2.47;0.60;;;12.00;99.90;;;;;;5035557;28;20033;-49
2023/11/07 12:48:06;;;;;;;1.33;0.77;;;11.90;99.90;;;;;;5034319;28;20419;-53
2023/11/07 12:50:47;;;;;;;2.20;0.60;;;11.90;99.90;;;;;;5034412;28;20067;-54
2023/11/07 12:53:17;;;;;;;3.27;0.70;;;11.90;99.90;;;;;;5034607;28;20094;-51
2023/11/07 12:55:50;;;;;;;2.13;0.60;;;11.80;99.90;;;;;;5034495;28;20041;-52
2023/11/07 12:58:27;;;;;;;1.17;0.60;;;11.80;99.90;;;;;;5034895;28;20096;-53
2023/11/07 13:00:54;;;;;;;2.27;1.00;;;11.80;99.90;;;;;;5034588;28;20033;-53